createdAt,value
2022-09-09T00:00:52.538Z,100838.91
2022-09-09T00:03:31.243Z,100815.72
2022-09-09T00:06:06.684Z,100815.72
2022-09-09T00:09:10.782Z,100831.44
2022-09-09T00:11:51.961Z,100832.98
2022-09-09T00:14:55.069Z,100822.30
2022-09-09T00:17:31.515Z,100822.30
2022-09-09T00:20:06.877Z,100818.08
2022-09-09T00:22:37.721Z,100800.07
2022-09-09T00:25:14.339Z,100800.07
2022-09-09T00:27:52.438Z,100812.17
2022-09-09T00:30:30.829Z,100824.59
2022-09-09T00:33:06.180Z,100814.51
2022-09-09T00:35:50.423Z,100823.57
2022-09-09T00:38:28.945Z,100815.40
2022-09-09T00:41:04.329Z,100815.40
2022-09-09T00:43:42.414Z,100817.74
2022-09-09T00:46:34.809Z,100817.74
2022-09-09T00:49:26.307Z,100810.30
2022-09-09T00:52:14.067Z,100809.61
2022-09-09T00:55:13.680Z,100809.32
2022-09-09T00:57:43.767Z,100814.35
2022-09-09T01:00:23.260Z,100804.95
2022-09-09T01:03:18.441Z,100807.48
2022-09-09T01:05:57.004Z,100805.67
2022-09-09T01:08:35.482Z,100807.83
2022-09-09T01:11:06.194Z,100799.77
2022-09-09T01:13:37.747Z,100801.61
2022-09-09T01:16:13.478Z,100797.94
2022-09-09T01:18:46.486Z,100800.45
2022-09-09T01:21:26.817Z,100797.38
2022-09-09T01:24:19.445Z,100797.38
2022-09-09T01:27:05.423Z,100800.70
2022-09-09T01:29:35.473Z,100805.29
2022-09-09T01:32:24.301Z,100804.54
2022-09-09T01:34:54.206Z,100804.45
2022-09-09T01:37:24.398Z,100799.34
2022-09-09T01:39:54.237Z,100802.08
2022-09-09T01:42:24.000Z,100796.30
2022-09-09T01:44:55.198Z,100803.84
2022-09-09T01:47:25.335Z,100805.47
2022-09-09T01:49:56.788Z,100801.55
2022-09-09T01:52:28.580Z,100807.58
2022-09-09T01:54:58.827Z,100798.02
2022-09-09T01:57:48.013Z,100798.02
2022-09-09T02:00:17.919Z,100794.72
2022-09-09T02:03:01.677Z,100799.81
2022-09-09T02:05:47.605Z,100796.62
2022-09-09T02:08:30.903Z,100794.67
2022-09-09T02:11:05.545Z,100791.03
2022-09-09T02:13:41.441Z,100788.54
2022-09-09T02:16:46.474Z,100782.89
2022-09-09T02:19:31.570Z,100783.13
2022-09-09T02:22:03.550Z,100776.46
2022-09-09T02:24:36.728Z,100781.66
2022-09-09T02:27:10.795Z,100779.22
2022-09-09T02:29:43.443Z,100778.19
2022-09-09T02:32:19.539Z,100779.50
2022-09-09T02:35:03.963Z,100779.98
2022-09-09T02:37:47.161Z,100770.23
2022-09-09T02:40:18.007Z,100775.06
2022-09-09T02:42:51.084Z,100768.08
2022-09-09T02:45:27.086Z,100765.48
2022-09-09T02:48:17.148Z,100763.80
2022-09-09T02:50:59.010Z,100766.55
2022-09-09T02:53:43.950Z,100767.37
2022-09-09T02:56:22.503Z,100769.09
2022-09-09T02:58:52.748Z,100771.36
2022-09-09T03:01:23.467Z,100770.62
2022-09-09T03:03:53.226Z,100775.57
2022-09-09T03:06:22.732Z,100776.33
2022-09-09T03:08:54.164Z,100776.98
2022-09-09T03:11:25.593Z,100787.03
2022-09-09T03:13:56.922Z,100786.70
2022-09-09T03:16:27.315Z,100780.62
2022-09-09T03:18:57.234Z,100787.78
2022-09-09T03:21:26.954Z,100785.19
2022-09-09T03:23:58.134Z,100781.27
2022-09-09T03:26:27.861Z,100777.69
2022-09-09T03:28:57.928Z,100788.41
2022-09-09T03:31:29.730Z,100781.70
2022-09-09T03:34:00.241Z,100776.22
2022-09-09T03:36:32.223Z,100775.48
2022-09-09T03:39:03.731Z,100777.88
2022-09-09T03:41:33.540Z,100780.09
2022-09-09T03:44:03.984Z,100785.93
2022-09-09T03:46:35.182Z,100784.11
2022-09-09T03:49:05.375Z,100781.89
2022-09-09T03:51:36.530Z,100787.75
2022-09-09T03:54:08.141Z,100781.52
2022-09-09T03:56:38.528Z,100784.80
2022-09-09T03:59:09.635Z,100785.06
2022-09-09T04:01:40.261Z,100785.06
2022-09-09T04:04:10.565Z,100785.75
2022-09-09T04:06:40.589Z,100778.54
2022-09-09T04:09:10.399Z,100778.54
2022-09-09T04:11:39.843Z,100779.97
2022-09-09T04:14:09.926Z,100770.74
2022-09-09T04:16:39.852Z,100770.30
2022-09-09T04:19:12.321Z,100768.17
2022-09-09T04:21:43.693Z,100765.03
2022-09-09T04:24:16.758Z,100762.97
2022-09-09T04:26:47.629Z,100759.24
2022-09-09T04:29:17.397Z,100752.26
2022-09-09T04:31:47.160Z,100750.51
2022-09-09T04:34:16.847Z,100752.67
2022-09-09T04:36:46.889Z,100757.88
2022-09-09T04:39:16.982Z,100755.83
2022-09-09T04:41:47.863Z,100758.78
2022-09-09T04:44:18.050Z,100758.78
2022-09-09T04:46:47.776Z,100759.64
2022-09-09T04:49:18.757Z,100758.55
2022-09-09T04:51:50.357Z,100756.55
2022-09-09T04:54:20.333Z,100758.08
2022-09-09T04:56:52.490Z,100751.39
2022-09-09T04:59:23.050Z,100749.59
2022-09-09T05:01:56.208Z,100744.81
2022-09-09T05:04:25.660Z,100743.07
2022-09-09T05:06:55.400Z,100742.48
2022-09-09T05:09:25.697Z,100739.61
2022-09-09T05:11:55.803Z,100747.38
2022-09-09T05:14:33.348Z,100751.59
2022-09-09T05:17:03.416Z,100738.05
2022-09-09T05:19:33.623Z,100741.11
2022-09-09T05:22:05.853Z,100739.36
2022-09-09T05:24:37.638Z,100737.50
2022-09-09T05:27:10.575Z,100735.05
2022-09-09T05:29:42.579Z,100735.05
2022-09-09T05:32:15.328Z,100736.30
2022-09-09T05:34:44.022Z,100740.20
2022-09-09T05:37:14.619Z,100735.16
2022-09-09T05:39:45.588Z,100735.16
2022-09-09T05:42:16.976Z,100738.37
2022-09-09T05:44:47.074Z,100736.83
2022-09-09T05:47:16.871Z,100739.91
2022-09-09T05:49:46.906Z,100738.87
2022-09-09T05:52:19.103Z,100740.71
2022-09-09T05:54:49.433Z,100735.42
2022-09-09T05:57:20.346Z,100726.20
2022-09-09T05:59:50.737Z,100726.33
2022-09-09T06:02:20.758Z,100723.41
2022-09-09T06:04:50.591Z,100718.87
2022-09-09T06:07:20.978Z,100725.08
2022-09-09T06:09:52.280Z,100731.37
2022-09-09T06:12:22.042Z,100740.77
2022-09-09T06:14:52.643Z,100740.77
2022-09-09T06:17:22.459Z,100742.26
2022-09-09T06:19:53.135Z,100750.49
2022-09-09T06:22:22.939Z,100750.78
2022-09-09T06:24:54.545Z,100747.62
2022-09-09T06:27:26.253Z,100747.50
2022-09-09T06:29:56.666Z,100748.18
2022-09-09T06:32:27.812Z,100746.27
2022-09-09T06:34:57.636Z,100756.66
2022-09-09T06:37:27.700Z,100750.00
2022-09-09T06:39:57.738Z,100743.66
2022-09-09T06:42:27.254Z,100739.38
2022-09-09T06:45:11.102Z,100740.91
2022-09-09T06:47:42.716Z,100736.70
2022-09-09T06:50:15.487Z,100743.70
2022-09-09T06:52:47.503Z,100739.93
2022-09-09T06:55:18.479Z,100748.55
2022-09-09T06:57:49.389Z,100741.99
2022-09-09T07:00:20.562Z,100748.38
2022-09-09T07:02:51.856Z,100740.14
2022-09-09T07:05:22.146Z,100749.67
2022-09-09T07:07:53.118Z,100749.67
2022-09-09T07:10:23.035Z,100740.98
2022-09-09T07:12:56.315Z,100745.63
2022-09-09T07:15:27.490Z,100733.62
2022-09-09T07:17:57.359Z,100733.91
2022-09-09T07:20:27.478Z,100733.91
2022-09-09T07:22:58.050Z,100738.48
2022-09-09T07:25:29.697Z,100738.59
2022-09-09T07:28:00.473Z,100735.55
2022-09-09T07:30:30.607Z,100738.06
2022-09-09T07:33:00.641Z,100737.31
2022-09-09T07:35:31.430Z,100740.12
2022-09-09T07:38:03.174Z,100739.08
2022-09-09T07:40:32.899Z,100741.64
2022-09-09T07:43:02.888Z,100747.78
2022-09-09T07:45:35.447Z,100745.02
2022-09-09T07:48:05.738Z,100747.55
2022-09-09T07:50:35.609Z,100747.55
2022-09-09T07:53:07.123Z,100748.59
2022-09-09T07:55:37.046Z,100759.16
2022-09-09T07:58:07.027Z,100751.00
2022-09-09T08:00:37.236Z,100748.05
2022-09-09T08:03:07.213Z,100756.39
2022-09-09T08:05:37.293Z,100749.41
2022-09-09T08:08:09.065Z,100743.69
2022-09-09T08:10:39.115Z,100743.69
2022-09-09T08:13:18.006Z,100751.56
2022-09-09T08:15:43.097Z,100751.56
2022-09-09T08:18:15.484Z,100746.80
2022-09-09T08:20:46.105Z,100751.59
2022-09-09T08:23:16.487Z,100755.31
2022-09-09T08:25:46.795Z,100746.70
2022-09-09T08:28:17.150Z,100763.75
2022-09-09T08:30:49.109Z,100753.50
2022-09-09T08:33:19.981Z,100757.17
2022-09-09T08:35:53.725Z,100766.16
2022-09-09T08:38:23.570Z,100763.81
2022-09-09T08:40:57.643Z,100763.81
2022-09-09T08:43:30.062Z,100772.19
2022-09-09T08:46:14.751Z,100767.56
2022-09-09T08:48:53.441Z,100770.77
2022-09-09T08:51:25.318Z,100772.55
2022-09-09T08:53:59.862Z,100780.37
2022-09-09T08:56:31.702Z,100781.51
2022-09-09T08:59:06.501Z,100776.64
2022-09-09T09:01:47.297Z,100766.98
2022-09-09T09:04:33.407Z,100783.20
2022-09-09T09:07:32.105Z,100786.61
2022-09-09T09:10:40.551Z,100788.49
2022-09-09T09:12:53.936Z,100791.70
2022-09-09T09:15:29.423Z,100781.25
2022-09-09T09:17:59.136Z,100795.88
2022-09-09T09:20:48.700Z,100786.40
2022-09-09T09:23:24.622Z,100784.42
2022-09-09T09:25:59.225Z,100783.43
2022-09-09T09:28:34.259Z,100781.57
2022-09-09T09:31:11.565Z,100782.22
2022-09-09T09:33:54.036Z,100773.22
2022-09-09T09:36:37.194Z,100782.63
2022-09-09T09:41:42.638Z,100782.56
2022-09-09T09:44:32.110Z,100780.97
2022-09-09T09:47:21.476Z,100776.22
2022-09-09T09:50:20.263Z,100776.22
2022-09-09T09:52:59.717Z,100780.48
2022-09-09T09:55:32.810Z,100786.91
2022-09-09T09:58:07.936Z,100778.18
2022-09-09T10:00:40.211Z,100785.09
2022-09-09T10:03:27.961Z,100782.47
2022-09-09T10:05:58.776Z,100782.47
2022-09-09T10:08:29.442Z,100783.19
2022-09-09T10:11:15.529Z,100784.00
2022-09-09T10:14:08.592Z,100778.62
2022-09-09T10:17:14.156Z,100775.85
2022-09-09T10:19:52.407Z,100783.19
2022-09-09T10:22:30.831Z,100788.89
2022-09-09T10:25:19.281Z,100778.97
2022-09-09T10:27:58.944Z,100777.36
2022-09-09T10:30:48.418Z,100777.48
2022-09-09T10:33:46.638Z,100770.33
2022-09-09T10:36:26.090Z,100779.31
2022-09-09T10:39:05.410Z,100785.61
2022-09-09T10:41:56.894Z,100787.05
2022-09-09T10:44:38.614Z,100784.98
2022-09-09T10:47:27.904Z,100778.06
2022-09-09T10:50:16.952Z,100778.12
2022-09-09T10:52:55.419Z,100788.67
2022-09-09T10:55:30.113Z,100790.73
2022-09-09T10:58:02.747Z,100791.27
2022-09-09T11:00:41.081Z,100795.63
2022-09-09T11:03:14.351Z,100791.75
2022-09-09T11:05:47.489Z,100793.77
2022-09-09T11:11:21.106Z,100795.29
2022-09-09T11:13:59.898Z,100794.52
2022-09-09T11:16:56.059Z,100792.69
2022-09-09T11:19:43.031Z,100796.05
2022-09-09T11:22:40.584Z,100804.81
2022-09-09T11:25:24.876Z,100807.03
2022-09-09T11:28:16.069Z,100794.84
2022-09-09T11:31:09.377Z,100793.40
2022-09-09T11:34:02.982Z,100798.61
2022-09-09T11:36:38.207Z,100794.78
2022-09-09T11:39:10.992Z,100791.06
2022-09-09T11:41:40.780Z,100799.00
2022-09-09T11:44:17.258Z,100789.25
2022-09-09T11:46:50.337Z,100792.80
2022-09-09T11:49:32.374Z,100785.05
2022-09-09T11:52:03.630Z,100781.99
2022-09-09T11:54:36.009Z,100779.39
2022-09-09T11:57:06.300Z,100788.66
2022-09-09T11:59:37.575Z,100786.53
2022-09-09T12:02:25.418Z,100792.55
2022-09-09T12:05:16.530Z,100781.83
2022-09-09T12:07:57.889Z,100790.31
2022-09-09T12:10:30.742Z,100783.08
2022-09-09T12:13:20.288Z,100783.50
2022-09-09T12:15:55.482Z,100780.76
2022-09-09T12:18:40.217Z,100783.63
2022-09-09T12:21:29.276Z,100775.81
2022-09-09T12:24:02.045Z,100781.47
2022-09-09T12:26:46.231Z,100779.17
2022-09-09T12:29:27.477Z,100779.45
2022-09-09T12:32:08.975Z,100775.22
2022-09-09T12:34:56.064Z,100770.88
2022-09-09T12:37:43.610Z,100771.06
2022-09-09T12:40:27.554Z,100777.53
2022-09-09T12:42:57.726Z,100773.08
2022-09-09T12:45:29.097Z,100772.08
2022-09-09T12:48:05.229Z,100769.41
2022-09-09T12:50:41.209Z,100771.20
2022-09-09T12:53:15.841Z,100771.72
2022-09-09T12:55:54.332Z,100767.20
2022-09-09T12:58:25.063Z,100759.05
2022-09-09T13:00:59.589Z,100748.08
2022-09-09T13:03:29.626Z,100754.51
2022-09-09T13:06:15.274Z,100749.80
2022-09-09T13:08:44.917Z,100749.16
2022-09-09T13:11:17.697Z,100748.05
2022-09-09T13:13:53.096Z,100741.95
2022-09-09T13:16:37.800Z,100740.64
2022-09-09T13:19:11.663Z,100738.48
2022-09-09T13:21:41.949Z,100739.59
2022-09-09T13:24:34.381Z,100731.83
2022-09-09T13:27:07.168Z,100721.87
2022-09-09T13:29:38.083Z,100721.87
2022-09-09T13:32:10.852Z,100733.03
2022-09-09T13:34:40.751Z,100749.65
2022-09-09T13:37:13.523Z,100737.38
2022-09-09T13:39:44.819Z,100742.83
2022-09-09T13:42:29.766Z,100745.09
2022-09-09T13:45:05.418Z,100746.14
2022-09-09T13:47:38.128Z,100722.81
2022-09-09T13:50:24.727Z,100722.81
2022-09-09T13:52:57.929Z,100731.53
2022-09-09T13:55:29.945Z,100738.41
2022-09-09T13:58:02.107Z,100745.67
2022-09-09T14:00:34.483Z,100737.88
2022-09-09T14:03:04.379Z,100740.39
2022-09-09T14:05:35.747Z,100746.27
2022-09-09T14:08:08.371Z,100737.66
2022-09-09T14:10:38.254Z,100737.67
2022-09-09T14:13:09.160Z,100738.22
2022-09-09T14:15:39.125Z,100709.09
2022-09-09T14:18:10.077Z,100709.09
2022-09-09T14:20:39.996Z,100723.54
2022-09-09T14:23:12.606Z,100732.09
2022-09-09T14:25:43.742Z,100724.87
2022-09-09T14:28:16.041Z,100719.33
2022-09-09T14:30:46.472Z,100719.59
2022-09-09T14:33:18.115Z,100716.84
2022-09-09T14:35:48.031Z,100721.28
2022-09-09T14:38:19.243Z,100720.98
2022-09-09T14:40:48.832Z,100718.44
2022-09-09T14:43:18.601Z,100720.56
2022-09-09T14:45:49.058Z,100721.15
2022-09-09T14:48:18.762Z,100710.45
2022-09-09T14:50:48.475Z,100716.31
2022-09-09T14:53:19.046Z,100707.50
2022-09-09T14:55:49.154Z,100695.97
2022-09-09T14:58:18.592Z,100695.97
2022-09-09T15:00:48.354Z,100704.87
2022-09-09T15:03:18.139Z,100703.06
2022-09-09T15:05:47.887Z,100707.92
2022-09-09T15:08:18.485Z,100701.91
2022-09-09T15:10:48.273Z,100690.52
2022-09-09T15:13:21.598Z,100703.55
2022-09-09T15:15:52.198Z,100703.55
2022-09-09T15:18:22.406Z,100702.70
2022-09-09T15:20:52.208Z,100700.68
2022-09-09T15:23:22.266Z,100692.82
2022-09-09T15:25:57.363Z,100694.22
2022-09-09T15:28:27.093Z,100690.23
2022-09-09T15:30:57.771Z,100700.77
2022-09-09T15:33:28.929Z,100700.80
2022-09-09T15:35:58.950Z,100703.84
2022-09-09T15:38:28.812Z,100713.81
2022-09-09T15:40:59.425Z,100715.19
2022-09-09T15:43:29.443Z,100711.79
2022-09-09T15:46:02.281Z,100714.78
2022-09-09T15:48:35.133Z,100716.44
2022-09-09T15:51:19.563Z,100735.45
2022-09-09T15:53:38.989Z,100736.93
2022-09-09T15:56:09.020Z,100755.25
2022-09-09T15:58:39.240Z,100753.52
2022-09-09T16:01:11.141Z,100747.17
2022-09-09T16:03:45.627Z,100730.08
2022-09-09T16:06:16.715Z,100730.08
2022-09-09T16:08:48.018Z,100744.94
2022-09-09T16:11:21.029Z,100741.98
2022-09-09T16:13:52.249Z,100746.88
2022-09-09T16:16:25.173Z,100748.10
2022-09-09T16:18:57.847Z,100758.52
2022-09-09T16:21:32.955Z,100757.73
2022-09-09T16:24:04.120Z,100753.35
2022-09-09T16:26:36.219Z,100748.69
2022-09-09T16:29:06.669Z,100757.19
2022-09-09T16:31:36.871Z,100761.88
2022-09-09T16:34:08.135Z,100755.19
2022-09-09T16:36:40.133Z,100761.64
2022-09-09T16:39:12.231Z,100764.80
2022-09-09T16:41:43.863Z,100767.29
2022-09-09T16:44:16.493Z,100767.29
2022-09-09T16:46:48.984Z,100767.84
2022-09-09T16:49:18.698Z,100780.66
2022-09-09T16:51:50.706Z,100781.20
2022-09-09T16:54:20.908Z,100783.45
2022-09-09T16:56:50.759Z,100777.02
2022-09-09T16:59:23.282Z,100788.89
2022-09-09T17:01:54.509Z,100788.89
2022-09-09T17:04:27.177Z,100783.03
2022-09-09T17:06:58.407Z,100781.77
2022-09-09T17:09:30.201Z,100778.17
2022-09-09T17:12:00.842Z,100777.13
2022-09-09T17:14:31.968Z,100779.95
2022-09-09T17:17:18.840Z,100795.44
2022-09-09T17:19:33.665Z,100789.98
2022-09-09T17:22:16.738Z,100790.98
2022-09-09T17:24:35.273Z,100785.51
2022-09-09T17:27:05.140Z,100792.69
2022-09-09T17:29:36.736Z,100797.02
2022-09-09T17:32:08.495Z,100792.72
2022-09-09T17:34:38.834Z,100790.66
2022-09-09T17:37:08.598Z,100790.66
2022-09-09T17:39:38.223Z,100798.66
2022-09-09T17:42:09.966Z,100790.32
2022-09-09T17:44:40.873Z,100785.65
2022-09-09T17:47:10.608Z,100785.65
2022-09-09T17:49:40.649Z,100806.26
2022-09-09T17:52:11.098Z,100811.95
2022-09-09T17:54:42.099Z,100816.41
2022-09-09T17:57:12.188Z,100815.14
2022-09-09T17:59:41.993Z,100821.20
2022-09-09T18:02:16.057Z,100821.23
2022-09-09T18:04:47.281Z,100819.53
2022-09-09T18:07:17.135Z,100821.06
2022-09-09T18:09:46.965Z,100828.12
2022-09-09T18:12:16.622Z,100832.62
2022-09-09T18:14:47.011Z,100827.42
2022-09-09T18:17:16.912Z,100830.41
2022-09-09T18:19:46.956Z,100835.15
2022-09-09T18:22:16.474Z,100840.16
2022-09-09T18:24:47.831Z,100843.39
2022-09-09T18:27:17.572Z,100843.80
2022-09-09T18:29:48.079Z,100846.91
2022-09-09T18:32:19.181Z,100834.13
2022-09-09T18:34:55.333Z,100845.24
2022-09-09T18:37:22.261Z,100847.91
2022-09-09T18:39:52.914Z,100861.17
2022-09-09T18:42:22.740Z,100866.12
2022-09-09T18:44:52.491Z,100866.69
2022-09-09T18:47:23.898Z,100870.81
2022-09-09T18:49:53.704Z,100866.48
2022-09-09T18:52:25.146Z,100869.96
2022-09-09T18:54:54.587Z,100869.81
2022-09-09T18:57:24.677Z,100878.62
2022-09-09T18:59:55.340Z,100878.62
2022-09-09T19:02:24.795Z,100872.24
2022-09-09T19:04:54.666Z,100876.67
2022-09-09T19:07:24.425Z,100885.33
2022-09-09T19:09:54.146Z,100886.41
2022-09-09T19:12:24.180Z,100892.09
2022-09-09T19:14:53.984Z,100888.73
2022-09-09T19:17:25.789Z,100887.98
2022-09-09T19:19:55.528Z,100897.00
2022-09-09T19:22:26.413Z,100897.29
2022-09-09T19:24:58.077Z,100890.47
2022-09-09T19:27:27.833Z,100895.45
2022-09-09T19:29:57.568Z,100895.45
2022-09-09T19:32:52.063Z,100898.58
2022-09-09T19:34:58.557Z,100901.80
2022-09-09T19:37:28.056Z,100908.08
2022-09-09T19:39:57.857Z,100906.85
2022-09-09T19:42:29.256Z,100909.91
2022-09-09T19:44:59.057Z,100918.95
2022-09-09T19:47:29.178Z,100916.86
2022-09-09T19:49:58.934Z,100922.34
2022-09-09T19:52:28.701Z,100920.71
2022-09-09T19:54:59.303Z,100930.34
2022-09-09T19:57:30.666Z,100931.34
2022-09-09T20:00:00.922Z,100929.59
2022-09-09T20:02:31.262Z,100928.55
2022-09-09T20:05:00.947Z,100926.47
2022-09-09T20:07:30.685Z,100925.45
2022-09-09T20:10:00.709Z,100928.22
2022-09-09T20:12:30.460Z,100928.22
2022-09-09T20:15:00.266Z,100939.27
2022-09-09T20:17:30.287Z,100939.27
2022-09-09T20:20:00.218Z,100933.30
2022-09-09T20:22:29.984Z,100934.34
2022-09-09T20:24:59.704Z,100929.89
2022-09-09T20:27:29.454Z,100936.77
2022-09-09T20:29:59.342Z,100935.14
2022-09-09T20:32:29.464Z,100935.14
2022-09-09T20:34:59.201Z,100936.94
2022-09-09T20:37:29.010Z,100940.77
2022-09-09T20:40:00.036Z,100939.81
2022-09-09T20:42:29.819Z,100945.45
2022-09-09T20:44:59.612Z,100937.77
2022-09-09T20:47:29.318Z,100940.14
2022-09-09T20:50:00.230Z,100937.82
2022-09-09T20:52:29.964Z,100942.56
2022-09-09T20:54:59.690Z,100931.60
2022-09-09T20:57:29.465Z,100940.23
2022-09-09T20:59:59.633Z,100938.83
2022-09-09T21:02:29.426Z,100936.23
2022-09-09T21:05:00.766Z,100940.36
2022-09-09T21:07:30.268Z,100936.39
2022-09-09T21:10:01.624Z,100943.33
2022-09-09T21:12:31.658Z,100949.11
2022-09-09T21:15:01.208Z,100942.58
2022-09-09T21:17:30.959Z,100947.29
2022-09-09T21:20:01.967Z,100945.56
2022-09-09T21:22:32.074Z,100954.81
2022-09-09T21:25:01.807Z,100948.81
2022-09-09T21:27:31.567Z,100952.17
2022-09-09T21:30:02.903Z,100962.03
2022-09-09T21:32:32.716Z,100952.17
2022-09-09T21:35:02.461Z,100957.19
2022-09-09T21:37:32.178Z,100955.97
2022-09-09T21:40:02.061Z,100948.52
2022-09-09T21:42:31.800Z,100947.31
2022-09-09T21:45:01.542Z,100947.31
2022-09-09T21:47:31.284Z,100952.67
2022-09-09T21:50:01.078Z,100953.41
2022-09-09T21:52:31.089Z,100954.49
2022-09-09T21:55:00.901Z,100949.89
2022-09-09T21:57:30.642Z,100950.56
2022-09-09T22:00:00.146Z,100944.56
2022-09-09T22:02:29.982Z,100950.30
2022-09-09T22:04:59.802Z,100950.30
2022-09-09T22:07:29.525Z,100942.34
2022-09-09T22:09:59.894Z,100943.40
2022-09-09T22:12:29.641Z,100944.38
2022-09-09T22:14:59.379Z,100934.39
2022-09-09T22:17:29.887Z,100923.11
2022-09-09T22:19:59.623Z,100923.11
2022-09-09T22:22:29.367Z,100934.53
2022-09-09T22:24:59.218Z,100934.69
2022-09-09T22:27:28.973Z,100936.20
2022-09-09T22:29:58.708Z,100941.47
2022-09-09T22:32:28.461Z,100947.00
2022-09-09T22:34:58.875Z,100944.55
2022-09-09T22:37:28.630Z,100954.06
2022-09-09T22:39:58.418Z,100958.73
2022-09-09T22:42:28.015Z,100950.67
2022-09-09T22:44:57.945Z,100953.38
2022-09-09T22:47:27.677Z,100959.46
2022-09-09T22:49:58.093Z,100952.34
2022-09-09T22:52:31.400Z,100955.27
2022-09-09T22:55:01.601Z,100948.14
2022-09-09T22:57:31.332Z,100947.43
2022-09-09T23:00:01.524Z,100947.43
2022-09-09T23:02:31.450Z,100953.91
2022-09-09T23:05:03.187Z,100955.09
2022-09-09T23:07:32.921Z,100935.77
2022-09-09T23:10:03.131Z,100935.77
2022-09-09T23:12:33.881Z,100949.23
2022-09-09T23:15:05.326Z,100954.39
2022-09-09T23:17:35.059Z,100954.39
2022-09-09T23:20:09.846Z,100958.31
2022-09-09T23:22:40.323Z,100954.92
2022-09-09T23:25:10.290Z,100954.38
2022-09-09T23:27:40.023Z,100964.00
2022-09-09T23:30:11.863Z,100963.55
2022-09-09T23:32:41.592Z,100966.89
2022-09-09T23:35:11.909Z,100973.17
2022-09-09T23:37:42.026Z,100975.86
2022-09-09T23:40:13.034Z,100970.34
2022-09-09T23:42:42.774Z,100978.31
2022-09-09T23:45:12.332Z,100977.67
2022-09-09T23:47:42.126Z,100974.95
2022-09-09T23:50:14.249Z,100980.22
2022-09-09T23:52:44.462Z,100978.73
2022-09-09T23:55:14.196Z,100975.80
2022-09-09T23:57:44.100Z,100975.80
